createdAt,value
2022-12-15T00:00:45.377Z,44.50
2022-12-15T00:03:52.247Z,41.90
2022-12-15T00:06:39.471Z,44.10
2022-12-15T00:09:30.723Z,44.20
2022-12-15T00:12:18.339Z,40.30
2022-12-15T00:15:05.170Z,42.20
2022-12-15T00:17:51.953Z,45.10
2022-12-15T00:20:38.610Z,40.50
2022-12-15T00:23:29.994Z,40.90
2022-12-15T00:26:18.599Z,44.10
2022-12-15T00:29:05.300Z,48.20
2022-12-15T00:31:52.213Z,42.20
2022-12-15T00:34:39.115Z,40.20
2022-12-15T00:37:25.936Z,42.80
2022-12-15T00:40:04.035Z,42.20
2022-12-15T00:42:32.874Z,47.90
2022-12-15T00:45:01.603Z,48.00
2022-12-15T00:47:33.041Z,42.60
2022-12-15T00:50:20.109Z,42.20
2022-12-15T00:53:06.884Z,38.50
2022-12-15T00:55:53.587Z,35.90
2022-12-15T00:58:40.294Z,38.90
2022-12-15T01:01:28.532Z,39.50
2022-12-15T01:04:15.724Z,36.20
2022-12-15T01:07:03.636Z,37.50
2022-12-15T01:09:50.485Z,41.60
2022-12-15T01:12:37.742Z,44.40
2022-12-15T01:15:26.344Z,43.00
2022-12-15T01:18:13.283Z,38.50
2022-12-15T01:20:41.861Z,41.20
2022-12-15T01:23:10.456Z,45.70
2022-12-15T01:25:39.706Z,41.10
2022-12-15T01:28:08.289Z,46.90
2022-12-15T01:30:36.967Z,46.30
2022-12-15T01:33:05.448Z,43.70
2022-12-15T01:35:34.248Z,48.90
2022-12-15T01:38:02.919Z,45.50
2022-12-15T01:40:46.682Z,42.10
2022-12-15T01:43:19.112Z,44.00
2022-12-15T01:46:06.248Z,39.90
2022-12-15T01:48:39.060Z,41.60
2022-12-15T01:51:13.374Z,41.00
2022-12-15T01:53:47.499Z,37.10
2022-12-15T01:56:19.712Z,42.50
2022-12-15T01:58:51.882Z,44.00
2022-12-15T02:03:49.305Z,46.90
2022-12-15T02:06:23.469Z,44.20
2022-12-15T02:08:53.609Z,40.30
2022-12-15T02:11:48.620Z,40.10
2022-12-15T02:14:25.522Z,39.00
2022-12-15T02:17:06.811Z,39.40
2022-12-15T02:20:13.890Z,39.60
2022-12-15T02:23:02.098Z,41.30
2022-12-15T02:25:52.551Z,37.50
2022-12-15T02:28:31.986Z,35.50
2022-12-15T02:31:21.661Z,35.60
2022-12-15T02:33:57.123Z,44.60
2022-12-15T02:36:32.344Z,42.10
2022-12-15T02:39:02.050Z,38.70
2022-12-15T02:41:37.070Z,44.90
2022-12-15T02:44:13.336Z,38.10
2022-12-15T02:46:54.974Z,36.90
2022-12-15T02:49:30.699Z,40.90
2022-12-15T02:52:12.337Z,32.60
2022-12-15T02:54:57.830Z,37.90
2022-12-15T02:57:35.671Z,33.50
2022-12-15T03:00:07.111Z,36.00
2022-12-15T03:02:39.063Z,32.40
2022-12-15T03:07:42.103Z,32.70
2022-12-15T03:12:58.245Z,35.70
2022-12-15T03:15:30.401Z,33.80
2022-12-15T03:18:03.710Z,32.00
2022-12-15T03:20:32.531Z,32.20
2022-12-15T03:23:01.603Z,31.90
2022-12-15T03:25:30.414Z,34.50
2022-12-15T03:27:59.285Z,31.10
2022-12-15T03:30:28.097Z,35.40
2022-12-15T03:32:56.730Z,31.90
2022-12-15T03:35:25.193Z,33.90
2022-12-15T03:37:53.803Z,33.10
2022-12-15T03:40:22.425Z,34.10
2022-12-15T03:42:51.002Z,33.80
2022-12-15T03:45:21.237Z,30.00
2022-12-15T03:47:50.939Z,31.40
2022-12-15T03:50:21.863Z,29.90
2022-12-15T03:52:52.107Z,28.70
2022-12-15T03:55:22.157Z,31.20
2022-12-15T03:57:51.546Z,30.20
2022-12-15T04:00:21.775Z,28.30
2022-12-15T04:02:53.002Z,29.20
2022-12-15T04:05:26.786Z,29.00
2022-12-15T04:07:56.892Z,29.60
2022-12-15T04:10:31.911Z,23.70
2022-12-15T04:13:04.359Z,28.30
2022-12-15T04:15:33.155Z,27.70
2022-12-15T04:18:02.973Z,31.20
2022-12-15T04:20:32.362Z,26.60
2022-12-15T04:23:01.166Z,35.30
2022-12-15T04:25:48.492Z,46.40
2022-12-15T04:28:35.316Z,42.80
2022-12-15T04:31:27.881Z,31.90
2022-12-15T04:34:19.061Z,31.10
2022-12-15T04:37:09.684Z,30.40
2022-12-15T04:39:58.907Z,28.90
2022-12-15T04:42:46.686Z,28.50
2022-12-15T04:45:34.774Z,30.30
2022-12-15T04:48:22.161Z,26.90
2022-12-15T04:51:08.885Z,25.40
2022-12-15T04:53:56.164Z,30.10
2022-12-15T04:56:43.027Z,28.90
2022-12-15T04:59:30.000Z,25.90
2022-12-15T05:02:16.751Z,27.60
2022-12-15T05:05:05.783Z,35.10
2022-12-15T05:07:52.638Z,33.30
2022-12-15T05:10:39.216Z,31.50
2022-12-15T05:13:27.025Z,32.80
2022-12-15T05:16:13.770Z,37.50
2022-12-15T05:19:01.883Z,38.60
2022-12-15T05:21:48.633Z,78.50
2022-12-15T05:24:35.408Z,58.80
2022-12-15T05:27:22.643Z,52.90
2022-12-15T05:30:09.404Z,46.90
2022-12-15T05:32:38.064Z,51.90
2022-12-15T05:35:07.433Z,49.10
2022-12-15T05:37:36.412Z,46.50
2022-12-15T05:40:06.634Z,33.20
2022-12-15T05:42:35.200Z,32.80
2022-12-15T05:45:04.871Z,26.70
2022-12-15T05:47:33.420Z,26.40
2022-12-15T05:50:02.056Z,26.50
2022-12-15T05:52:30.862Z,28.60
2022-12-15T05:54:59.452Z,35.00
2022-12-15T05:57:28.233Z,44.40
2022-12-15T05:59:57.141Z,38.70
2022-12-15T06:02:25.707Z,42.00
2022-12-15T06:04:54.435Z,61.30
2022-12-15T06:07:23.287Z,46.40
2022-12-15T06:09:51.935Z,44.80
2022-12-15T06:12:20.482Z,34.10
2022-12-15T06:14:49.877Z,34.20
2022-12-15T06:17:18.632Z,99.80
2022-12-15T06:19:47.158Z,56.30
2022-12-15T06:22:16.696Z,60.20
2022-12-15T06:24:45.278Z,35.90
2022-12-15T06:27:13.869Z,33.40
2022-12-15T06:29:42.741Z,33.90
2022-12-15T06:32:11.458Z,30.40
2022-12-15T06:34:40.810Z,30.50
2022-12-15T06:37:09.310Z,30.10
2022-12-15T06:39:37.914Z,33.80
2022-12-15T06:42:06.569Z,39.40
2022-12-15T06:44:35.163Z,53.30
2022-12-15T06:47:03.978Z,79.10
2022-12-15T06:49:32.713Z,61.70
2022-12-15T06:52:01.295Z,49.80
2022-12-15T06:54:29.981Z,68.00
2022-12-15T06:56:58.614Z,51.40
2022-12-15T06:59:27.259Z,30.00
2022-12-15T07:01:55.939Z,30.10
2022-12-15T07:04:24.654Z,39.50
2022-12-15T07:06:53.272Z,47.80
2022-12-15T07:09:21.872Z,40.30
2022-12-15T07:11:51.756Z,37.70
2022-12-15T07:14:20.363Z,44.80
2022-12-15T07:16:48.989Z,43.70
2022-12-15T07:19:18.991Z,42.60
2022-12-15T07:21:47.558Z,43.30
2022-12-15T07:24:16.352Z,53.30
2022-12-15T07:26:45.554Z,56.70
2022-12-15T07:29:22.868Z,50.50
2022-12-15T07:31:52.121Z,38.30
2022-12-15T07:34:21.372Z,39.70
2022-12-15T07:36:52.455Z,77.50
2022-12-15T07:39:23.895Z,56.50
2022-12-15T07:41:52.644Z,57.00
2022-12-15T07:44:21.451Z,55.40
2022-12-15T07:46:50.017Z,85.00
2022-12-15T07:49:19.605Z,71.00
2022-12-15T07:51:48.565Z,42.80
2022-12-15T07:54:17.753Z,39.90
2022-12-15T07:56:50.544Z,38.40
2022-12-15T08:01:47.858Z,40.60
2022-12-15T08:04:16.912Z,41.40
2022-12-15T08:06:45.526Z,37.90
2022-12-15T08:09:14.427Z,45.00
2022-12-15T08:11:42.937Z,42.00
2022-12-15T08:14:16.885Z,45.50
2022-12-15T08:16:46.447Z,48.50
2022-12-15T08:19:17.072Z,48.90
2022-12-15T08:21:48.959Z,41.50
2022-12-15T08:24:18.735Z,54.70
2022-12-15T08:26:50.185Z,45.90
2022-12-15T08:32:08.266Z,44.20
2022-12-15T08:34:37.928Z,38.00
2022-12-15T08:37:06.559Z,33.80
2022-12-15T08:39:35.425Z,36.40
2022-12-15T08:42:04.290Z,36.50
2022-12-15T08:44:33.374Z,36.70
2022-12-15T08:47:02.127Z,33.30
2022-12-15T08:49:31.068Z,32.40
2022-12-15T08:51:59.548Z,35.70
2022-12-15T08:54:28.437Z,42.60
2022-12-15T08:56:57.049Z,37.50
2022-12-15T08:59:26.133Z,37.80
2022-12-15T09:01:54.895Z,35.00
2022-12-15T09:04:23.588Z,34.10
2022-12-15T09:06:52.336Z,34.50
2022-12-15T09:09:22.159Z,38.70
2022-12-15T09:11:50.759Z,36.90
2022-12-15T09:14:25.489Z,38.70
2022-12-15T09:16:55.860Z,44.80
2022-12-15T09:19:25.053Z,62.70
2022-12-15T09:21:53.555Z,44.30
2022-12-15T09:24:32.445Z,54.90
2022-12-15T09:27:04.067Z,50.70
2022-12-15T09:29:33.509Z,47.80
2022-12-15T09:32:05.552Z,31.20
2022-12-15T09:34:57.439Z,31.40
2022-12-15T09:37:26.112Z,40.40
2022-12-15T09:39:54.720Z,47.70
2022-12-15T09:42:26.489Z,42.10
2022-12-15T09:45:01.459Z,45.20
2022-12-15T09:47:40.470Z,49.30
2022-12-15T09:50:14.030Z,74.80
2022-12-15T09:52:48.988Z,57.10
2022-12-15T09:55:21.659Z,43.00
2022-12-15T09:57:53.888Z,41.70
2022-12-15T10:00:24.975Z,55.80
2022-12-15T10:03:23.695Z,45.00
2022-12-15T10:06:21.242Z,39.10
2022-12-15T10:08:56.129Z,38.50
2022-12-15T10:11:40.186Z,45.10
2022-12-15T10:14:18.777Z,41.20
2022-12-15T10:16:55.286Z,29.00
2022-12-15T10:19:31.372Z,32.40
2022-12-15T10:22:00.286Z,28.70
2022-12-15T10:27:35.372Z,24.30
2022-12-15T10:30:08.471Z,26.10
2022-12-15T10:32:50.349Z,26.50
2022-12-15T10:35:23.077Z,26.50
2022-12-15T10:37:51.915Z,25.90
2022-12-15T10:43:41.244Z,26.40
2022-12-15T10:46:15.036Z,34.60
2022-12-15T10:48:48.725Z,33.30
2022-12-15T10:51:24.883Z,26.90
2022-12-15T10:54:03.948Z,24.10
2022-12-15T10:56:34.289Z,27.80
2022-12-15T10:59:22.028Z,26.20
2022-12-15T11:01:52.309Z,22.80
2022-12-15T11:04:29.441Z,27.70
2022-12-15T11:06:59.933Z,29.20
2022-12-15T11:09:32.972Z,27.00
2022-12-15T11:12:21.155Z,25.30
2022-12-15T11:14:51.392Z,32.00
2022-12-15T11:17:21.540Z,38.70
2022-12-15T11:20:01.642Z,32.70
2022-12-15T11:22:44.118Z,35.00
2022-12-15T11:25:33.252Z,34.70
2022-12-15T11:28:11.031Z,39.10
2022-12-15T11:30:45.408Z,34.20
2022-12-15T11:33:14.354Z,34.20
2022-12-15T11:35:56.423Z,33.70
2022-12-15T11:38:35.548Z,32.10
2022-12-15T11:41:13.737Z,30.90
2022-12-15T11:44:06.225Z,33.70
2022-12-15T11:46:42.184Z,50.50
2022-12-15T11:55:12.549Z,36.40
2022-12-15T11:58:05.709Z,38.70
2022-12-15T12:00:41.552Z,35.80
2022-12-15T12:03:26.118Z,45.80
2022-12-15T12:06:15.516Z,56.70
2022-12-15T12:09:03.605Z,54.00
2022-12-15T12:11:40.198Z,63.30
2022-12-15T12:14:19.834Z,54.00
2022-12-15T12:16:56.485Z,49.00
2022-12-15T12:19:31.681Z,44.60
2022-12-15T12:22:06.389Z,57.00
2022-12-15T12:24:43.624Z,38.60
2022-12-15T12:27:18.760Z,33.60
2022-12-15T12:29:50.803Z,31.90
2022-12-15T12:32:29.957Z,28.50
2022-12-15T12:35:31.053Z,28.10
2022-12-15T12:38:04.061Z,28.10
2022-12-15T12:40:44.970Z,30.70
2022-12-15T12:43:31.598Z,26.30
2022-12-15T12:46:05.761Z,27.80
2022-12-15T12:48:38.342Z,27.80
2022-12-15T12:51:23.132Z,28.50
2022-12-15T12:53:52.446Z,28.00
2022-12-15T12:56:33.676Z,27.60
2022-12-15T12:59:08.109Z,27.40
2022-12-15T13:01:37.831Z,23.10
2022-12-15T13:04:10.223Z,24.00
2022-12-15T13:09:41.797Z,22.60
2022-12-15T13:15:39.282Z,24.30
2022-12-15T13:18:15.152Z,23.20
2022-12-15T13:20:48.799Z,22.70
2022-12-15T13:23:36.389Z,23.00
2022-12-15T13:26:18.038Z,25.40
2022-12-15T13:28:50.689Z,28.90
2022-12-15T13:31:32.100Z,27.10
2022-12-15T13:34:28.315Z,23.70
2022-12-15T13:37:01.387Z,23.50
2022-12-15T13:39:57.667Z,25.40
2022-12-15T13:42:51.248Z,25.20
2022-12-15T13:45:41.954Z,23.40
2022-12-15T13:48:21.285Z,24.70
2022-12-15T13:50:56.009Z,24.90
2022-12-15T13:53:27.617Z,25.60
2022-12-15T13:56:06.159Z,26.10
2022-12-15T13:58:43.398Z,29.30
2022-12-15T14:04:15.075Z,29.50
2022-12-15T14:06:50.691Z,35.30
2022-12-15T14:09:24.328Z,33.00
2022-12-15T14:11:54.331Z,31.70
2022-12-15T14:14:27.046Z,34.90
2022-12-15T14:17:01.587Z,33.20
2022-12-15T14:19:39.822Z,41.10
2022-12-15T14:22:27.150Z,41.00
2022-12-15T14:25:03.404Z,42.00
2022-12-15T14:27:33.032Z,43.30
2022-12-15T14:30:21.684Z,46.20
2022-12-15T14:32:54.075Z,35.90
2022-12-15T14:35:29.212Z,44.90
2022-12-15T14:38:00.431Z,53.00
2022-12-15T14:40:29.732Z,38.00
2022-12-15T14:42:58.472Z,42.70
2022-12-15T14:45:31.149Z,40.70
2022-12-15T14:50:54.842Z,35.10
2022-12-15T14:53:25.348Z,32.80
2022-12-15T14:55:54.198Z,37.50
2022-12-15T14:58:32.254Z,33.70
2022-12-15T15:01:06.649Z,33.50
2022-12-15T15:03:06.720Z,24.50
2022-12-15T15:03:07.366Z,26.40
2022-12-15T15:03:09.223Z,39.20
2022-12-15T15:03:10.065Z,40.30
2022-12-15T15:03:10.971Z,26.60
2022-12-15T15:03:37.570Z,36.50
2022-12-15T15:06:18.181Z,30.80
2022-12-15T15:08:48.866Z,32.10
2022-12-15T15:11:28.824Z,62.70
2022-12-15T15:14:00.123Z,52.60
2022-12-15T15:16:30.762Z,86.40
2022-12-15T15:19:02.747Z,103.70
2022-12-15T15:21:36.454Z,85.00
2022-12-15T15:24:22.665Z,91.10
2022-12-15T15:26:52.634Z,61.10
2022-12-15T15:29:39.754Z,51.90
2022-12-15T15:32:15.911Z,35.50
2022-12-15T15:34:46.987Z,35.30
2022-12-15T15:37:22.678Z,29.40
2022-12-15T15:39:57.055Z,31.30
2022-12-15T15:42:32.315Z,28.80
2022-12-15T15:45:01.857Z,38.70
2022-12-15T15:47:30.845Z,48.40
2022-12-15T15:50:00.449Z,49.80
2022-12-15T15:52:31.402Z,60.20
2022-12-15T15:55:00.161Z,73.50
2022-12-15T15:57:29.301Z,65.90
2022-12-15T15:59:58.133Z,69.70
2022-12-15T16:02:28.315Z,68.40
2022-12-15T16:04:57.395Z,64.10
2022-12-15T16:07:31.153Z,63.20
2022-12-15T16:09:59.871Z,60.20
2022-12-15T16:12:33.888Z,61.60
2022-12-15T16:15:02.681Z,55.60
2022-12-15T16:17:31.253Z,55.70
2022-12-15T16:20:01.529Z,49.60
2022-12-15T16:22:30.555Z,44.80
2022-12-15T16:24:59.258Z,40.10
2022-12-15T16:27:28.201Z,54.30
2022-12-15T16:29:57.451Z,39.40
2022-12-15T16:32:26.264Z,47.70
2022-12-15T16:34:54.957Z,46.30
2022-12-15T16:37:27.191Z,45.10
2022-12-15T16:39:56.174Z,49.60
2022-12-15T16:42:24.858Z,45.90
2022-12-15T16:44:53.407Z,76.30
2022-12-15T16:47:22.803Z,49.70
2022-12-15T16:49:51.425Z,50.60
2022-12-15T16:52:21.851Z,67.90
2022-12-15T16:54:50.909Z,79.40
2022-12-15T16:57:19.439Z,78.20
2022-12-15T16:59:49.276Z,87.90
2022-12-15T17:02:26.364Z,85.30
2022-12-15T17:04:55.441Z,95.60
2022-12-15T17:07:26.291Z,91.10
2022-12-15T17:09:55.484Z,83.10
2022-12-15T17:12:24.165Z,72.80
2022-12-15T17:14:53.067Z,61.40
2022-12-15T17:17:25.332Z,65.40
2022-12-15T17:22:44.211Z,35.50
2022-12-15T17:26:00.728Z,40.10
2022-12-15T17:28:19.631Z,29.20
2022-12-15T17:30:49.629Z,59.00
2022-12-15T17:33:23.122Z,33.90
2022-12-15T17:35:54.072Z,38.30
2022-12-15T17:38:23.535Z,33.20
2022-12-15T17:40:52.895Z,43.00
2022-12-15T17:43:23.628Z,39.10
2022-12-15T17:45:54.976Z,40.20
2022-12-15T17:48:27.694Z,43.00
2022-12-15T17:50:56.305Z,44.90
2022-12-15T17:53:25.763Z,41.50
2022-12-15T17:55:54.351Z,36.00
2022-12-15T17:58:27.402Z,31.70
2022-12-15T18:00:56.672Z,35.90
2022-12-15T18:03:25.377Z,47.90
2022-12-15T18:05:54.287Z,45.00
2022-12-15T18:08:25.360Z,50.90
2022-12-15T18:10:56.064Z,58.10
2022-12-15T18:13:30.328Z,62.50
2022-12-15T18:16:02.058Z,66.50
2022-12-15T18:18:31.627Z,69.20
2022-12-15T18:21:07.474Z,72.40
2022-12-15T18:23:36.726Z,87.40
2022-12-15T18:26:05.550Z,99.10
2022-12-15T18:28:35.653Z,95.70
2022-12-15T18:31:15.481Z,108.90
2022-12-15T18:33:44.900Z,97.90
2022-12-15T18:36:16.184Z,112.10
2022-12-15T18:38:45.608Z,153.20
2022-12-15T18:41:17.170Z,107.90
2022-12-15T18:43:47.779Z,108.30
2022-12-15T18:46:19.535Z,74.50
2022-12-15T18:48:48.152Z,85.60
2022-12-15T18:51:18.652Z,75.40
2022-12-15T18:53:48.182Z,74.70
2022-12-15T18:56:20.911Z,72.20
2022-12-15T18:58:50.839Z,83.40
2022-12-15T19:01:19.451Z,77.60
2022-12-15T19:03:48.115Z,80.00
2022-12-15T19:06:26.037Z,74.10
2022-12-15T19:08:54.755Z,58.00
2022-12-15T19:11:30.263Z,46.30
2022-12-15T19:14:02.810Z,45.70
2022-12-15T19:16:51.860Z,45.10
2022-12-15T19:19:38.886Z,54.10
2022-12-15T19:22:26.310Z,46.70
2022-12-15T19:24:55.011Z,47.00
2022-12-15T19:27:25.987Z,47.70
2022-12-15T19:29:56.073Z,49.90
2022-12-15T19:32:26.097Z,51.80
2022-12-15T19:34:54.707Z,51.30
2022-12-15T19:37:26.422Z,47.00
2022-12-15T19:39:57.301Z,44.60
2022-12-15T19:42:32.898Z,48.70
2022-12-15T19:45:13.784Z,47.00
2022-12-15T19:47:43.794Z,54.60
2022-12-15T19:50:16.580Z,50.40
2022-12-15T19:52:53.200Z,65.20
2022-12-15T19:55:33.088Z,73.20
2022-12-15T19:58:21.023Z,78.90
2022-12-15T20:00:52.410Z,99.10
2022-12-15T20:03:21.620Z,105.10
2022-12-15T20:05:53.222Z,117.50
2022-12-15T20:08:24.384Z,117.60
2022-12-15T20:10:54.684Z,91.50
2022-12-15T20:13:27.235Z,63.40
2022-12-15T20:15:56.088Z,60.40
2022-12-15T20:18:25.105Z,59.60
2022-12-15T20:20:55.366Z,54.80
2022-12-15T20:23:26.380Z,54.80
2022-12-15T20:25:56.020Z,56.60
2022-12-15T20:28:27.322Z,53.90
2022-12-15T20:30:58.460Z,56.40
2022-12-15T20:33:27.771Z,62.40
2022-12-15T20:35:57.368Z,66.00
2022-12-15T20:38:31.065Z,52.30
2022-12-15T20:41:03.106Z,52.90
2022-12-15T20:43:34.035Z,54.70
2022-12-15T20:46:06.669Z,59.70
2022-12-15T20:48:36.282Z,63.80
2022-12-15T20:51:09.245Z,55.70
2022-12-15T20:53:38.947Z,68.40
2022-12-15T20:56:09.427Z,75.30
2022-12-15T20:58:41.058Z,76.50
2022-12-15T21:01:19.381Z,69.00
2022-12-15T21:03:53.065Z,60.90
2022-12-15T21:06:22.911Z,51.90
2022-12-15T21:08:52.032Z,53.20
2022-12-15T21:11:24.623Z,47.50
2022-12-15T21:13:56.181Z,48.30
2022-12-15T21:16:26.764Z,51.00
2022-12-15T21:21:49.229Z,46.30
2022-12-15T21:24:25.909Z,50.10
2022-12-15T21:26:55.260Z,49.00
2022-12-15T21:29:25.721Z,47.10
2022-12-15T21:31:54.262Z,51.10
2022-12-15T21:34:23.111Z,50.30
2022-12-15T21:36:54.922Z,52.90
2022-12-15T21:39:28.617Z,52.00
2022-12-15T21:41:59.528Z,51.50
2022-12-15T21:44:28.164Z,52.70
2022-12-15T21:46:56.777Z,53.30
2022-12-15T21:49:25.770Z,48.20
2022-12-15T21:51:56.197Z,39.90
2022-12-15T21:54:30.925Z,38.70
2022-12-15T21:57:01.273Z,35.50
2022-12-15T21:59:32.091Z,33.30
2022-12-15T22:02:01.359Z,35.30
2022-12-15T22:04:54.821Z,35.80
2022-12-15T22:07:23.704Z,34.40
2022-12-15T22:09:52.390Z,35.00
2022-12-15T22:12:23.634Z,34.80
2022-12-15T22:14:52.335Z,35.70
2022-12-15T22:17:22.063Z,34.30
2022-12-15T22:19:50.862Z,33.00
2022-12-15T22:22:20.571Z,35.70
2022-12-15T22:24:49.217Z,33.20
2022-12-15T22:27:20.255Z,36.30
2022-12-15T22:29:49.610Z,35.30
2022-12-15T22:32:18.396Z,34.50
2022-12-15T22:34:46.998Z,33.90
2022-12-15T22:37:15.600Z,30.50
2022-12-15T22:39:44.248Z,34.40
2022-12-15T22:42:16.660Z,32.90
2022-12-15T22:44:45.715Z,33.20
2022-12-15T22:47:14.568Z,38.40
2022-12-15T22:49:43.247Z,35.40
2022-12-15T22:52:16.745Z,35.50
2022-12-15T22:54:46.087Z,33.00
2022-12-15T22:57:20.707Z,34.30
2022-12-15T22:59:52.743Z,35.20
2022-12-15T23:02:23.255Z,33.70
2022-12-15T23:04:51.847Z,36.20
2022-12-15T23:07:20.506Z,36.40
2022-12-15T23:10:09.222Z,35.40
2022-12-15T23:12:37.814Z,35.00
2022-12-15T23:15:29.410Z,33.50
2022-12-15T23:17:57.924Z,32.20
2022-12-15T23:20:26.723Z,32.40
2022-12-15T23:22:55.333Z,31.60
2022-12-15T23:25:23.846Z,35.30
2022-12-15T23:27:52.531Z,34.00
2022-12-15T23:30:21.236Z,30.80
2022-12-15T23:32:50.097Z,34.40
2022-12-15T23:35:23.891Z,36.10
2022-12-15T23:37:52.421Z,32.60
2022-12-15T23:40:21.466Z,30.50
2022-12-15T23:42:50.877Z,31.90
2022-12-15T23:45:20.865Z,30.00
2022-12-15T23:47:49.518Z,33.00
2022-12-15T23:50:18.666Z,31.10
2022-12-15T23:52:51.214Z,31.60
2022-12-15T23:55:20.646Z,32.20
2022-12-15T23:57:49.185Z,30.40
